Time,TemperatureF,DewpointF,PressureIn,WindDirection,WindDirectionDegrees,WindSpeedMPH,WindSpeedGustMPH,Humidity,HourlyPrecipIn,Conditions,Clouds,dailyrainin,SolarRadiationWatts/m^2,SoftwareType,DateUTC
2013-01-27 00:01:00,31.0,31.0,-100.00,North,357,2.0,6.0,99,0.00,,,0.57,0.000000,,2013-01-27 07:01:00,
2013-01-27 00:13:00,31.0,31.0,-100.00,North,357,2.0,6.0,99,0.00,,,0.57,0.000000,,2013-01-27 07:13:00,
2013-01-27 00:21:00,31.0,31.0,-100.00,North,357,2.0,6.0,99,0.00,,,0.57,0.000000,,2013-01-27 07:21:00,
2013-01-27 00:31:00,31.0,31.0,-100.00,North,357,2.0,6.0,99,0.00,,,0.57,0.000000,,2013-01-27 07:31:00,
2013-01-27 00:41:00,31.0,31.0,-100.00,North,357,2.0,6.0,99,0.00,,,0.57,0.000000,,2013-01-27 07:41:00,
2013-01-27 01:01:00,30.0,30.0,-100.00,North,356,1.0,3.0,99,0.00,,,0.57,0.000000,,2013-01-27 08:01:00,
2013-01-27 01:11:00,30.0,30.0,-100.00,North,356,1.0,3.0,99,0.00,,,0.57,0.000000,,2013-01-27 08:11:00,
2013-01-27 01:22:00,30.0,30.0,-100.00,North,356,1.0,3.0,99,0.00,,,0.57,0.000000,,2013-01-27 08:22:00,
2013-01-27 01:31:00,30.0,30.0,-100.00,North,356,1.0,3.0,99,0.00,,,0.57,0.000000,,2013-01-27 08:31:00,
2013-01-27 01:41:00,30.0,30.0,-100.00,North,356,1.0,3.0,99,0.00,,,0.57,0.000000,,2013-01-27 08:41:00,
2013-01-27 02:02:00,30.0,29.0,-100.00,NNW,339,3.0,3.0,97,0.00,,,0.56,0.000000,,2013-01-27 09:02:00,
2013-01-27 02:11:00,30.0,29.0,-100.00,NNW,339,3.0,3.0,97,0.00,,,0.56,0.000000,,2013-01-27 09:11:00,
2013-01-27 02:21:00,30.0,29.0,-100.00,NNW,339,3.0,3.0,97,0.00,,,0.56,0.000000,,2013-01-27 09:21:00,
2013-01-27 02:31:00,30.0,29.0,-100.00,NNW,339,3.0,3.0,97,0.00,,,0.56,0.000000,,2013-01-27 09:31:00,
2013-01-27 02:41:00,30.0,29.0,-100.00,NNW,339,3.0,3.0,97,0.00,,,0.56,0.000000,,2013-01-27 09:41:00,
2013-01-27 03:01:00,30.0,26.0,-100.00,NNW,344,3.0,7.0,86,0.00,,,0.54,0.000000,,2013-01-27 10:01:00,
2013-01-27 03:11:00,30.0,26.0,-100.00,NNW,344,3.0,7.0,86,0.00,,,0.54,0.000000,,2013-01-27 10:11:00,
2013-01-27 03:21:00,30.0,26.0,-100.00,NNW,344,3.0,7.0,86,0.00,,,0.54,0.000000,,2013-01-27 10:21:00,
2013-01-27 03:31:00,30.0,26.0,-100.00,NNW,344,3.0,7.0,86,0.00,,,0.54,0.000000,,2013-01-27 10:31:00,
2013-01-27 03:41:00,30.0,26.0,-100.00,NNW,344,3.0,7.0,86,0.00,,,0.54,0.000000,,2013-01-27 10:41:00,
2013-01-27 03:42:00,27.0,23.0,-100.00,SSE,153,1.0,5.0,86,0.00,,,0.53,0.000000,,2013-01-27 10:42:00,
2013-01-27 04:01:00,27.0,23.0,-100.00,SSE,153,1.0,5.0,86,0.00,,,0.53,0.000000,,2013-01-27 11:01:00,
2013-01-27 04:11:00,27.0,23.0,-100.00,SSE,153,1.0,5.0,86,0.00,,,0.53,0.000000,,2013-01-27 11:11:00,
2013-01-27 04:21:00,27.0,23.0,-100.00,SSE,153,1.0,5.0,86,0.00,,,0.53,0.000000,,2013-01-27 11:21:00,
2013-01-27 04:32:00,27.0,23.0,-100.00,SSE,153,1.0,5.0,86,0.00,,,0.53,0.000000,,2013-01-27 11:32:00,
2013-01-27 05:02:00,26.0,22.0,-100.00,NNE,16,2.0,5.0,86,0.00,,,0.46,0.000000,,2013-01-27 12:02:00,
2013-01-27 05:11:00,26.0,22.0,-100.00,NNE,16,2.0,5.0,86,0.00,,,0.46,0.000000,,2013-01-27 12:11:00,
2013-01-27 05:21:00,26.0,22.0,-100.00,NNE,16,2.0,5.0,86,0.00,,,0.46,0.000000,,2013-01-27 12:21:00,
2013-01-27 05:32:00,26.0,22.0,-100.00,NNE,16,2.0,5.0,86,0.00,,,0.46,0.000000,,2013-01-27 12:32:00,
2013-01-27 05:41:00,26.0,22.0,-100.00,NNE,16,2.0,5.0,86,0.00,,,0.46,0.000000,,2013-01-27 12:41:00,
2013-01-27 06:02:00,26.0,21.0,-100.00,NE,50,6.0,10.0,80,0.00,,,0.41,0.000000,,2013-01-27 13:02:00,
2013-01-27 06:11:00,26.0,21.0,-100.00,NE,50,6.0,10.0,80,0.00,,,0.41,0.000000,,2013-01-27 13:11:00,
2013-01-27 06:22:00,26.0,21.0,-100.00,NE,50,6.0,10.0,80,0.00,,,0.41,0.000000,,2013-01-27 13:22:00,
2013-01-27 06:31:00,26.0,21.0,-100.00,NE,50,6.0,10.0,80,0.00,,,0.41,0.000000,,2013-01-27 13:31:00,
2013-01-27 06:41:00,26.0,21.0,-100.00,NE,50,6.0,10.0,80,0.00,,,0.41,0.000000,,2013-01-27 13:41:00,
2013-01-27 06:42:00,25.0,19.0,-100.00,NNW,333,6.0,9.0,78,0.00,,,0.40,0.000000,,2013-01-27 13:42:00,
2013-01-27 07:01:00,25.0,19.0,-100.00,NNW,333,6.0,9.0,78,0.00,,,0.40,0.000000,,2013-01-27 14:01:00,
2013-01-27 07:11:00,25.0,19.0,-100.00,NNW,333,6.0,9.0,78,0.00,,,0.40,0.000000,,2013-01-27 14:11:00,
2013-01-27 07:21:00,25.0,19.0,-100.00,NNW,333,6.0,9.0,78,0.00,,,0.40,0.000000,,2013-01-27 14:21:00,
2013-01-27 07:32:00,25.0,19.0,-100.00,NNW,333,6.0,9.0,78,0.00,,,0.40,0.000000,,2013-01-27 14:32:00,
2013-01-27 07:42:00,25.0,21.0,-100.00,NNW,345,2.0,9.0,84,0.00,,,0.37,0.000000,,2013-01-27 14:42:00,
2013-01-27 08:11:00,25.0,21.0,-100.00,NNW,345,2.0,9.0,84,0.00,,,0.37,0.000000,,2013-01-27 15:11:00,
2013-01-27 08:22:00,25.0,21.0,-100.00,NNW,345,2.0,9.0,84,0.00,,,0.37,0.000000,,2013-01-27 15:22:00,
2013-01-27 08:32:00,25.0,21.0,-100.00,NNW,345,2.0,9.0,84,0.00,,,0.37,0.000000,,2013-01-27 15:32:00,
2013-01-27 09:02:00,24.0,21.0,-100.00,NNW,331,3.0,12.0,88,0.00,,,0.32,5.000000,,2013-01-27 16:02:00,
2013-01-27 09:11:00,24.0,21.0,-100.00,NNW,331,3.0,12.0,88,0.00,,,0.32,5.000000,,2013-01-27 16:11:00,
2013-01-27 09:21:00,24.0,21.0,-100.00,NNW,331,3.0,12.0,88,0.00,,,0.32,5.000000,,2013-01-27 16:21:00,
2013-01-27 09:32:00,24.0,21.0,-100.00,NNW,331,3.0,12.0,88,0.00,,,0.32,5.000000,,2013-01-27 16:32:00,
2013-01-27 09:41:00,24.0,21.0,-100.00,NNW,331,3.0,12.0,88,0.00,,,0.32,5.000000,,2013-01-27 16:41:00,
2013-01-27 10:01:00,30.0,23.0,-100.00,NNE,29,4.0,13.0,75,0.00,,,0.28,96.000000,,2013-01-27 17:01:00,
2013-01-27 10:12:00,30.0,23.0,-100.00,NNE,29,4.0,13.0,75,0.00,,,0.28,96.000000,,2013-01-27 17:12:00,
2013-01-27 10:21:00,30.0,23.0,-100.00,NNE,29,4.0,13.0,75,0.00,,,0.28,96.000000,,2013-01-27 17:21:00,
2013-01-27 10:32:00,30.0,23.0,-100.00,NNE,29,4.0,13.0,75,0.00,,,0.28,96.000000,,2013-01-27 17:32:00,
2013-01-27 10:41:00,30.0,23.0,-100.00,NNE,29,4.0,13.0,75,0.00,,,0.28,96.000000,,2013-01-27 17:41:00,
2013-01-27 11:02:00,35.0,25.0,-100.00,NNE,29,3.0,8.0,67,0.01,,,0.22,187.000000,,2013-01-27 18:02:00,
2013-01-27 11:41:00,35.0,25.0,-100.00,NNE,29,3.0,8.0,67,0.01,,,0.22,187.000000,,2013-01-27 18:41:00,
2013-01-27 12:02:00,37.0,25.0,-100.00,NW,323,4.0,9.0,61,0.01,,,0.21,295.000000,,2013-01-27 19:02:00,
2013-01-27 12:11:00,37.0,25.0,-100.00,NW,323,4.0,9.0,61,0.01,,,0.21,295.000000,,2013-01-27 19:11:00,
2013-01-27 12:21:00,37.0,25.0,-100.00,NW,323,4.0,9.0,61,0.01,,,0.21,295.000000,,2013-01-27 19:21:00,
2013-01-27 12:32:00,37.0,25.0,-100.00,NW,323,4.0,9.0,61,0.01,,,0.21,295.000000,,2013-01-27 19:32:00,
2013-01-27 12:41:00,37.0,25.0,-100.00,NW,323,4.0,9.0,61,0.01,,,0.21,295.000000,,2013-01-27 19:41:00,
2013-01-27 13:02:00,40.0,24.0,-100.00,NW,307,5.0,7.0,52,0.01,,,0.21,402.000000,,2013-01-27 20:02:00,
2013-01-27 13:11:00,40.0,24.0,-100.00,NW,307,5.0,7.0,52,0.01,,,0.21,402.000000,,2013-01-27 20:11:00,
2013-01-27 13:22:00,40.0,24.0,-100.00,NW,307,5.0,7.0,52,0.01,,,0.21,402.000000,,2013-01-27 20:22:00,
2013-01-27 13:32:00,40.0,24.0,-100.00,NW,307,5.0,7.0,52,0.01,,,0.21,402.000000,,2013-01-27 20:32:00,
2013-01-27 13:41:00,40.0,24.0,-100.00,NW,307,5.0,7.0,52,0.01,,,0.21,402.000000,,2013-01-27 20:41:00,
2013-01-27 13:42:00,35.0,21.0,-100.00,NW,323,3.0,10.0,56,0.01,,,0.22,344.000000,,2013-01-27 20:42:00,
2013-01-27 14:02:00,35.0,21.0,-100.00,NW,323,3.0,10.0,56,0.01,,,0.22,344.000000,,2013-01-27 21:02:00,
2013-01-27 14:12:00,35.0,21.0,-100.00,NW,323,3.0,10.0,56,0.01,,,0.22,344.000000,,2013-01-27 21:12:00,
2013-01-27 14:22:00,35.0,21.0,-100.00,NW,323,3.0,10.0,56,0.01,,,0.22,344.000000,,2013-01-27 21:22:00,
2013-01-27 14:32:00,35.0,21.0,-100.00,NW,323,3.0,10.0,56,0.01,,,0.22,344.000000,,2013-01-27 21:32:00,
2013-01-27 14:42:00,35.0,22.0,-100.00,ENE,74,6.0,10.0,58,0.01,,,-99.99,218.000000,,2013-01-27 21:42:00,
2013-01-27 15:02:00,35.0,22.0,-100.00,ENE,74,6.0,10.0,58,0.01,,,-99.99,218.000000,,2013-01-27 22:02:00,
2013-01-27 15:11:00,35.0,22.0,-100.00,ENE,74,6.0,10.0,58,0.01,,,-99.99,218.000000,,2013-01-27 22:11:00,
2013-01-27 15:21:00,35.0,22.0,-100.00,ENE,74,6.0,10.0,58,0.01,,,-99.99,218.000000,,2013-01-27 22:21:00,
2013-01-27 15:32:00,35.0,22.0,-100.00,ENE,74,6.0,10.0,58,0.01,,,-99.99,218.000000,,2013-01-27 22:32:00,
2013-01-27 16:02:00,38.0,21.0,-100.00,NW,314,1.0,7.0,50,0.00,,,0.13,224.000000,,2013-01-27 23:02:00,
2013-01-27 16:11:00,38.0,21.0,-100.00,NW,314,1.0,7.0,50,0.00,,,0.13,224.000000,,2013-01-27 23:11:00,
2013-01-27 16:21:00,38.0,21.0,-100.00,NW,314,1.0,7.0,50,0.00,,,0.13,224.000000,,2013-01-27 23:21:00,
2013-01-27 16:32:00,38.0,21.0,-100.00,NW,314,1.0,7.0,50,0.00,,,0.13,224.000000,,2013-01-27 23:32:00,
2013-01-27 16:41:00,38.0,21.0,-100.00,NW,314,1.0,7.0,50,0.00,,,0.13,224.000000,,2013-01-27 23:41:00,
2013-01-27 17:01:00,35.0,22.0,-100.00,SSE,151,4.0,8.0,59,0.00,,,0.08,214.000000,,2013-01-28 00:01:00,
2013-01-27 17:11:00,35.0,22.0,-100.00,SSE,151,4.0,8.0,59,0.00,,,0.08,214.000000,,2013-01-28 00:11:00,
2013-01-27 17:21:00,35.0,22.0,-100.00,SSE,151,4.0,8.0,59,0.00,,,0.08,214.000000,,2013-01-28 00:21:00,
2013-01-27 17:32:00,35.0,22.0,-100.00,SSE,151,4.0,8.0,59,0.00,,,0.08,214.000000,,2013-01-28 00:32:00,
2013-01-27 17:41:00,35.0,22.0,-100.00,SSE,151,4.0,8.0,59,0.00,,,0.08,214.000000,,2013-01-28 00:41:00,
2013-01-27 17:42:00,29.0,21.0,-100.00,ENE,70,2.0,7.0,73,0.00,,,0.06,28.000000,,2013-01-28 00:42:00,
2013-01-27 18:01:00,29.0,21.0,-100.00,ENE,70,2.0,7.0,73,0.00,,,0.06,28.000000,,2013-01-28 01:01:00,
2013-01-27 18:11:00,29.0,21.0,-100.00,ENE,70,2.0,7.0,73,0.00,,,0.06,28.000000,,2013-01-28 01:11:00,
2013-01-27 18:21:00,29.0,21.0,-100.00,ENE,70,2.0,7.0,73,0.00,,,0.06,28.000000,,2013-01-28 01:21:00,
2013-01-27 18:32:00,29.0,21.0,-100.00,ENE,70,2.0,7.0,73,0.00,,,0.06,28.000000,,2013-01-28 01:32:00,
2013-01-27 19:02:00,29.0,21.0,-100.00,ESE,108,4.0,7.0,72,0.00,,,0.06,1.000000,,2013-01-28 02:02:00,
2013-01-27 19:11:00,29.0,21.0,-100.00,ESE,108,4.0,7.0,72,0.00,,,0.06,1.000000,,2013-01-28 02:11:00,
2013-01-27 19:21:00,29.0,21.0,-100.00,ESE,108,4.0,7.0,72,0.00,,,0.06,1.000000,,2013-01-28 02:21:00,
2013-01-27 19:32:00,29.0,21.0,-100.00,ESE,108,4.0,7.0,72,0.00,,,0.06,1.000000,,2013-01-28 02:32:00,
2013-01-27 19:41:00,29.0,21.0,-100.00,ESE,108,4.0,7.0,72,0.00,,,0.06,1.000000,,2013-01-28 02:41:00,
2013-01-27 20:02:00,28.0,23.0,-100.00,ESE,120,2.0,13.0,81,0.00,,,0.05,0.000000,,2013-01-28 03:02:00,
2013-01-27 20:11:00,28.0,23.0,-100.00,ESE,120,2.0,13.0,81,0.00,,,0.05,0.000000,,2013-01-28 03:11:00,
2013-01-27 20:21:00,28.0,23.0,-100.00,ESE,120,2.0,13.0,81,0.00,,,0.05,0.000000,,2013-01-28 03:21:00,
2013-01-27 20:32:00,28.0,23.0,-100.00,ESE,120,2.0,13.0,81,0.00,,,0.05,0.000000,,2013-01-28 03:32:00,
2013-01-27 20:41:00,28.0,23.0,-100.00,ESE,120,2.0,13.0,81,0.00,,,0.05,0.000000,,2013-01-28 03:41:00,
2013-01-27 21:01:00,27.0,23.0,-100.00,NW,325,0.0,5.0,83,0.00,,,0.05,0.000000,,2013-01-28 04:01:00,
2013-01-27 21:11:00,27.0,23.0,-100.00,NW,325,0.0,5.0,83,0.00,,,0.05,0.000000,,2013-01-28 04:11:00,
2013-01-27 21:21:00,27.0,23.0,-100.00,NW,325,0.0,5.0,83,0.00,,,0.05,0.000000,,2013-01-28 04:21:00,
2013-01-27 21:31:00,27.0,23.0,-100.00,NW,325,0.0,5.0,83,0.00,,,0.05,0.000000,,2013-01-28 04:31:00,
2013-01-27 21:41:00,27.0,23.0,-100.00,NW,325,0.0,5.0,83,0.00,,,0.05,0.000000,,2013-01-28 04:41:00,
2013-01-27 22:03:00,27.0,22.0,-100.00,ENE,58,3.0,6.0,82,0.00,,,0.05,0.000000,,2013-01-28 05:03:00,
2013-01-27 22:11:00,27.0,22.0,-100.00,ENE,58,3.0,6.0,82,0.00,,,0.05,0.000000,,2013-01-28 05:11:00,
2013-01-27 22:21:00,27.0,22.0,-100.00,ENE,58,3.0,6.0,82,0.00,,,0.05,0.000000,,2013-01-28 05:21:00,
2013-01-27 22:31:00,27.0,22.0,-100.00,ENE,58,3.0,6.0,82,0.00,,,0.05,0.000000,,2013-01-28 05:31:00,
2013-01-27 22:41:00,27.0,22.0,-100.00,ENE,58,3.0,6.0,82,0.00,,,0.05,0.000000,,2013-01-28 05:41:00,
2013-01-27 23:02:00,27.0,21.0,-100.00,NE,53,2.0,5.0,79,0.00,,,0.05,0.000000,,2013-01-28 06:02:00,
2013-01-27 23:11:00,27.0,21.0,-100.00,NE,53,2.0,5.0,79,0.00,,,0.05,0.000000,,2013-01-28 06:11:00,
2013-01-27 23:21:00,27.0,21.0,-100.00,NE,53,2.0,5.0,79,0.00,,,0.05,0.000000,,2013-01-28 06:21:00,
2013-01-27 23:32:00,27.0,21.0,-100.00,NE,53,2.0,5.0,79,0.00,,,0.05,0.000000,,2013-01-28 06:32:00,
2013-01-27 23:41:00,27.0,21.0,-100.00,NE,53,2.0,5.0,79,0.00,,,0.05,0.000000,,2013-01-28 06:41:00,